This is the latest recevied weather packets stored in our database for station/object W4KUS-10. If no packets are shown the sender has not sent any weather packets the latest 1 day(s).
| Time | Temp. | Humidity | Pressure | Rain* | Wind** | Luminosity | Snow |
|---|---|---|---|---|---|---|---|
| 1778013940 | 25° C | 54% | 1016.6 hPa | 0 mm | 1.79 m/s, 252° | - | - |
| 1778013640 | 25° C | 54% | 1016.6 hPa | 0 mm | 1.34 m/s, 266° | - | - |
| 1778013340 | 25.56° C | 54% | 1016.6 hPa | 0 mm | 1.34 m/s, 259° | - | - |
| 1778013040 | 25.56° C | 53% | 1016.6 hPa | 0 mm | 1.79 m/s, 264° | - | - |
| 1778012740 | 25.56° C | 54% | 1016.7 hPa | 0 mm | 1.34 m/s, 263° | - | - |
| 1778012440 | 25.56° C | 54% | 1016.9 hPa | 0 mm | 1.34 m/s, 258° | - | - |
| 1778012140 | 25.56° C | 54% | 1016.9 hPa | 0 mm | 1.34 m/s, 261° | - | - |
| 1778011840 | 25.56° C | 53% | 1017 hPa | 0 mm | 1.34 m/s, 266° | - | - |
| 1778011540 | 25.56° C | 53% | 1017.1 hPa | 0 mm | 1.34 m/s, 252° | - | - |
| 1778011240 | 25.56° C | 56% | 1017.1 hPa | 0 mm | 0.89 m/s, 272° | - | - |
| 1778010940 | 25.56° C | 54% | 1017.1 hPa | 0 mm | 1.79 m/s, 259° | - | - |
| 1778010640 | 25.56° C | 54% | 1017.2 hPa | 0 mm | 1.34 m/s, 273° | - | - |
| 1778010340 | 25.56° C | 54% | 1017.3 hPa | 0 mm | 1.79 m/s, 270° | - | - |
| 1778010040 | 25.56° C | 54% | 1017.3 hPa | 0 mm | 1.34 m/s, 276° | - | - |
| 1778009740 | 25.56° C | 54% | 1017.4 hPa | 0 mm | 1.34 m/s, 266° | - | - |
| 1778009440 | 25.56° C | 54% | 1017.4 hPa | 0 mm | 1.34 m/s, 276° | - | - |
| 1778009140 | 25.56° C | 54% | 1017.4 hPa | 0 mm | 1.79 m/s, 264° | - | - |
| 1778008840 | 25.56° C | 53% | 1017.4 hPa | 0 mm | 1.79 m/s, 279° | - | - |
| 1778008540 | 25.56° C | 54% | 1017.4 hPa | 0 mm | 1.79 m/s, 275° | - | - |
| 1778008240 | 25.56° C | 54% | 1017.5 hPa | 0 mm | 1.79 m/s, 265° | - | - |
| 1778007940 | 25.56° C | 54% | 1017.5 hPa | 0 mm | 1.79 m/s, 272° | - | - |
| 1778007640 | 25.56° C | 54% | 1017.5 hPa | 0 mm | 2.24 m/s, 272° | - | - |
| 1778007340 | 25.56° C | 54% | 1017.7 hPa | 0 mm | 2.24 m/s, 256° | - | - |
| 1778007040 | 25.56° C | 52% | 1017.8 hPa | 0 mm | 1.79 m/s, 277° | - | - |
| 1778006740 | 26.11° C | 52% | 1017.8 hPa | 0 mm | 1.79 m/s, 276° | - | - |
* Rain latest hour (hover to see other rain measurements)
** Current wind speed in m/s (hover to see current wind gust speed)